Time;durP1;ratioP1;P1;durP2;ratioP2;P2;SDS_P1;SDS_P2;PMS_P1;PMS_P2;Temp;Humidity;BMP_temperature;BMP_pressure;BME280_temperature;BME280_humidity;BME280_pressure;Samples;Min_cycle;Max_cycle;Signal;HPM_P1;HPM_P2
2022/04/04 00:00:24;;;;;;;9.95;6.03;;;;;;;0.37;76.37;99311.76;1788907;78;21119;-81
2022/04/04 00:03:00;;;;;;;13.15;7.00;;;;;;;0.34;77.65;99317.25;1771535;76;22737;31
2022/04/04 00:05:27;;;;;;;13.32;6.83;;;;;;;0.33;79.28;99324.05;1729605;80;21024;-81
2022/04/04 00:07:54;;;;;;;11.57;6.47;;;;;;;0.31;80.62;99323.58;1756245;78;20944;-81
2022/04/04 00:10:20;;;;;;;15.25;7.45;;;;;;;0.33;78.59;99318.07;1756261;79;20991;-82
2022/04/04 00:12:47;;;;;;;13.22;5.78;;;;;;;0.31;79.16;99321.02;1753025;77;21039;-81
2022/04/04 00:15:14;;;;;;;11.35;6.42;;;;;;;0.30;79.71;99321.83;1729157;80;20999;-82
2022/04/04 00:17:42;;;;;;;15.20;8.00;;;;;;;0.30;78.92;99324.00;1729152;81;21003;-82
2022/04/04 00:20:10;;;;;;;15.58;7.53;;;;;;;0.25;79.93;99325.59;1729124;79;20944;-80
2022/04/04 00:22:37;;;;;;;15.15;8.18;;;;;;;0.25;81.41;99323.45;1729238;79;20956;-81
2022/04/04 00:25:05;;;;;;;12.53;6.72;;;;;;;0.24;81.45;99322.60;1729165;79;20999;-81
2022/04/04 00:27:31;;;;;;;15.50;7.33;;;;;;;0.21;81.71;99311.45;1729121;79;20995;-82
2022/04/04 00:29:58;;;;;;;13.70;6.67;;;;;;;0.18;81.76;99318.64;1795336;77;21055;-81
2022/04/04 00:32:26;;;;;;;17.55;6.97;;;;;;;0.18;79.83;99316.09;1813052;77;21122;-81
2022/04/04 00:34:53;;;;;;;14.38;6.35;;;;;;;0.17;81.75;99313.92;1797689;77;20991;-83
2022/04/04 00:37:19;;;;;;;12.30;7.00;;;;;;;0.18;81.42;99316.09;1797755;78;21015;-81
2022/04/04 00:39:46;;;;;;;14.65;7.25;;;;;;;0.21;81.35;99321.67;1797741;77;20991;-83
2022/04/04 00:42:17;;;;;;;12.30;6.47;;;;;;;0.22;81.30;99321.70;1797726;78;20968;-82
2022/04/04 00:44:45;;;;;;;16.40;7.47;;;;;;;0.26;80.23;99325.16;1753161;78;20988;-81
2022/04/04 00:47:12;;;;;;;13.98;8.03;;;;;;;0.30;81.37;99329.50;1763000;81;21021;-81
2022/04/04 00:49:40;;;;;;;13.70;7.40;;;;;;;0.30;81.54;99325.28;1765254;78;21087;-81
2022/04/04 00:52:07;;;;;;;14.23;7.97;;;;;;;0.32;79.92;99327.84;1764763;80;20988;-81
2022/04/04 00:54:34;;;;;;;19.15;7.53;;;;;;;0.30;81.28;99328.23;1793571;78;20976;-81
2022/04/04 00:57:02;;;;;;;18.62;8.38;;;;;;;0.30;81.63;99329.11;1734540;78;20978;-82
2022/04/04 00:59:31;;;;;;;17.55;7.97;;;;;;;0.28;82.30;99324.39;1737947;76;21185;-81
2022/04/04 01:01:58;;;;;;;15.23;7.58;;;;;;;0.28;81.35;99329.89;1698918;81;21071;-81
2022/04/04 01:04:24;;;;;;;16.62;7.37;;;;;;;0.27;81.86;99321.79;1708348;81;21016;-82
2022/04/04 01:07:01;;;;;;;16.62;8.43;;;;;;;0.30;80.84;99323.11;1721213;78;22523;31
2022/04/04 01:09:30;;;;;;;15.20;7.83;;;;;;;0.31;80.39;99322.30;1688950;83;21078;-81
2022/04/04 01:12:10;;;;;;;19.25;8.75;;;;;;;0.33;80.15;99323.19;1689395;84;21001;-82
2022/04/04 01:14:46;;;;;;;23.38;8.80;;;;;;;0.35;80.30;99324.94;1691058;83;20980;-81
2022/04/04 01:17:13;;;;;;;19.73;8.75;;;;;;;0.36;80.70;99329.23;1691881;83;21011;-81
2022/04/04 01:19:40;;;;;;;18.75;8.25;;;;;;;0.41;79.86;99331.02;1692154;83;21036;-82
2022/04/04 01:24:59;;;;;;;17.45;8.28;;;;;;;0.41;80.95;99333.14;1727990;79;21047;-81
2022/04/04 01:27:23;;;;;;;17.92;8.75;;;;;;;0.42;81.42;99328.49;1711471;82;21051;-82
2022/04/04 01:29:50;;;;;;;15.63;7.95;;;;;;;0.45;80.65;99328.96;1711787;82;21071;-81
2022/04/04 01:32:17;;;;;;;27.15;8.18;;;;;;;0.46;80.27;99321.32;1727278;80;21019;-82
2022/04/04 01:34:43;;;;;;;15.68;8.05;;;;;;;0.46;80.65;99325.16;1723255;83;21039;-81
2022/04/04 01:37:10;;;;;;;20.40;7.95;;;;;;;0.46;81.19;99329.00;1729302;79;21036;-81
2022/04/04 01:39:37;;;;;;;16.20;7.45;;;;;;;0.47;80.86;99326.02;1706249;80;21056;-81
2022/04/04 01:42:05;;;;;;;15.48;7.83;;;;;;;0.51;80.58;99333.77;1696432;82;20992;-81
2022/04/04 01:44:32;;;;;;;17.90;8.58;;;;;;;0.48;81.24;99323.49;1696494;82;21029;-82
2022/04/04 01:47:00;;;;;;;15.68;8.65;;;;;;;0.48;81.35;99328.61;1708196;78;21027;-78
2022/04/04 01:49:26;;;;;;;17.00;9.20;;;;;;;0.47;81.87;99329.85;1765836;78;20991;-81
2022/04/04 01:51:53;;;;;;;15.23;8.15;;;;;;;0.47;81.16;99331.98;1747376;77;21071;-81
2022/04/04 01:54:20;;;;;;;14.73;7.75;;;;;;;0.47;81.33;99328.15;1763435;78;21035;-81
2022/04/04 01:56:47;;;;;;;17.62;9.23;;;;;;;0.49;80.48;99328.19;1726641;81;21027;-81
2022/04/04 01:59:13;;;;;;;18.15;9.10;;;;;;;0.46;82.04;99321.72;1714984;81;21036;-81
2022/04/04 02:01:41;;;;;;;19.12;9.83;;;;;;;0.47;80.64;99328.57;1745123;78;21066;-80
2022/04/04 02:04:11;;;;;;;24.10;10.58;;;;;;;0.48;81.99;99335.00;1798576;80;20978;-81
2022/04/04 02:06:39;;;;;;;26.37;12.70;;;;;;;0.50;81.31;99333.77;1798587;78;20967;-82
2022/04/04 02:09:07;;;;;;;23.10;10.40;;;;;;;0.55;81.74;99320.63;1767226;80;20962;-82
2022/04/04 02:11:34;;;;;;;18.23;8.35;;;;;;;0.55;81.61;99320.63;1791425;78;20936;-81
2022/04/04 02:14:02;;;;;;;19.45;9.95;;;;;;;0.58;80.93;99321.97;1798496;79;20935;-81
2022/04/04 02:16:29;;;;;;;18.90;9.33;;;;;;;0.59;82.06;99316.00;1798622;78;20975;-82
2022/04/04 02:18:56;;;;;;;19.30;9.08;;;;;;;0.61;81.95;99313.48;1798678;79;20979;-80
2022/04/04 02:21:23;;;;;;;18.07;9.05;;;;;;;0.60;81.47;99315.19;1798716;79;20971;-81
2022/04/04 02:23:51;;;;;;;14.63;8.00;;;;;;;0.59;82.07;99314.73;1798715;78;20963;-81
2022/04/04 02:26:18;;;;;;;15.65;7.42;;;;;;;0.57;81.76;99313.41;1798711;78;20960;-82
2022/04/04 02:28:45;;;;;;;14.13;7.15;;;;;;;0.56;83.04;99323.22;1755507;78;21016;-82
2022/04/04 02:31:11;;;;;;;22.35;8.93;;;;;;;0.58;81.67;99315.15;1728109;82;20995;-81
2022/04/04 02:33:38;;;;;;;18.90;9.00;;;;;;;0.64;82.72;99314.41;1728244;82;21015;-82
2022/04/04 02:36:05;;;;;;;14.15;7.97;;;;;;;0.64;82.97;99317.36;1728272;82;21027;-81
2022/04/04 02:38:32;;;;;;;18.57;8.08;;;;;;;0.68;83.66;99311.49;1728330;82;21006;-83
2022/04/04 02:40:59;;;;;;;14.87;8.58;;;;;;;0.71;83.73;99312.38;1728314;82;20996;-82
2022/04/04 02:43:25;;;;;;;17.80;8.38;;;;;;;0.74;83.10;99309.89;1728295;82;20996;-81
2022/04/04 02:45:52;;;;;;;19.23;8.83;;;;;;;0.78;83.51;99314.66;1728257;82;21059;-81
2022/04/04 02:48:21;;;;;;;17.48;8.60;;;;;;;0.80;84.11;99312.98;1728197;82;21047;-81
2022/04/04 02:50:48;;;;;;;16.73;9.05;;;;;;;0.82;83.18;99312.59;1728202;82;21000;-81
2022/04/04 02:58:04;;;;;;;21.30;8.43;;;;;;;0.78;83.21;99317.22;1637144;85;21078;-82
2022/04/04 03:00:30;;;;;;;24.32;8.95;;;;;;;0.82;82.64;99318.99;1744707;77;22648;-78
2022/04/04 03:02:58;;;;;;;22.75;9.80;;;;;;;0.81;83.08;99320.23;1733833;79;21083;-82
2022/04/04 03:05:25;;;;;;;17.15;9.05;;;;;;;0.81;84.19;99316.40;1728822;79;21078;-77
2022/04/04 03:07:52;;;;;;;18.15;8.13;;;;;;;0.82;84.23;99310.42;1718650;80;21094;-82
2022/04/04 03:13:29;;;;;;;19.90;9.58;;;;;;;0.89;83.21;99302.89;1738540;79;21470;-78
2022/04/04 03:15:56;;;;;;;16.42;8.78;;;;;;;0.90;84.35;99299.93;1795535;78;21308;-82
2022/04/04 03:18:23;;;;;;;17.90;8.78;;;;;;;0.93;84.54;99302.52;1749827;79;21090;-81
2022/04/04 03:20:50;;;;;;;19.02;8.50;;;;;;;0.95;84.07;99304.69;1731792;79;22833;-78
2022/04/04 03:23:17;;;;;;;16.95;8.23;;;;;;;0.94;83.96;99301.28;1721706;81;21178;-77
2022/04/04 03:25:44;;;;;;;16.48;7.70;;;;;;;0.96;83.03;99314.97;1728196;80;21171;-80
2022/04/04 03:28:10;;;;;;;16.67;7.20;;;;;;;1.00;83.04;99314.61;1710450;78;21143;-81
2022/04/04 03:30:37;;;;;;;16.82;7.10;;;;;;;1.08;82.48;99313.45;1755642;78;21067;-79
2022/04/04 03:33:04;;;;;;;14.85;8.53;;;;;;;1.09;82.26;99315.16;1708770;80;21108;-79
2022/04/04 03:35:33;;;;;;;13.90;7.65;;;;;;;1.12;82.04;99312.67;1760292;78;21157;-72
2022/04/04 03:38:03;;;;;;;12.40;6.22;;;;;;;1.17;81.76;99316.14;1744240;80;21038;-81
2022/04/04 03:40:32;;;;;;;12.78;6.60;;;;;;;1.26;80.99;99318.87;1741195;80;21056;31
2022/04/04 03:43:09;;;;;;;11.65;6.80;;;;;;;1.22;80.98;99326.06;1739160;79;22795;31
2022/04/04 03:45:36;;;;;;;13.53;6.60;;;;;;;1.23;80.77;99326.48;1720118;79;21090;-80
2022/04/04 03:48:09;;;;;;;13.08;6.08;;;;;;;1.22;81.00;99331.19;1736319;79;21313;31
2022/04/04 03:50:37;;;;;;;17.02;7.20;;;;;;;1.32;80.67;99331.77;1765756;78;21025;-83
2022/04/04 03:53:05;;;;;;;17.07;7.17;;;;;;;1.33;80.71;99329.67;1775611;79;21045;-82
2022/04/04 03:55:39;;;;;;;13.32;6.85;;;;;;;1.35;80.11;99330.55;1746701;79;21115;-83
2022/04/04 03:58:27;;;;;;;14.93;7.37;;;;;;;1.38;80.15;99328.45;1678837;82;21073;-81
2022/04/04 04:00:54;;;;;;;12.78;6.25;;;;;;;1.46;79.44;99328.57;1680432;83;21092;-81
2022/04/04 04:06:23;;;;;;;14.20;5.40;;;;;;;1.43;78.61;99340.03;1694269;79;21587;-79
2022/04/04 04:08:50;;;;;;;10.58;6.40;;;;;;;1.41;78.20;99337.87;1704661;81;21057;-81
2022/04/04 04:11:18;;;;;;;12.03;6.17;;;;;;;1.42;78.10;99334.06;1717968;81;21089;-81
2022/04/04 04:13:46;;;;;;;13.85;5.90;;;;;;;1.38;77.78;99329.73;1705960;81;21067;-79
2022/04/04 04:16:13;;;;;;;13.68;6.72;;;;;;;1.38;77.72;99334.42;1670289;82;21005;-76
2022/04/04 04:18:41;;;;;;;13.20;6.20;;;;;;;1.37;77.87;99328.88;1660730;82;21143;-82
2022/04/04 04:21:10;;;;;;;16.23;6.83;;;;;;;1.38;77.66;99325.45;1700633;81;21077;-80
2022/04/04 04:23:37;;;;;;;14.63;7.30;;;;;;;1.39;77.29;99338.73;1710422;79;21133;-77
2022/04/04 04:26:06;;;;;;;12.73;6.08;;;;;;;1.41;77.31;99341.72;1691801;82;21032;-82
2022/04/04 04:28:56;;;;;;;10.78;6.30;;;;;;;1.45;77.46;99343.48;1765967;79;21109;31
2022/04/04 04:31:23;;;;;;;12.28;5.65;;;;;;;1.48;77.42;99342.27;1705716;82;21043;-83
2022/04/04 04:33:50;;;;;;;18.00;6.92;;;;;;;1.51;77.33;99347.42;1724167;81;21095;-81
2022/04/04 04:36:16;;;;;;;14.13;7.10;;;;;;;1.52;77.57;99345.31;1734064;81;21078;-82
2022/04/04 04:38:43;;;;;;;13.35;7.53;;;;;;;1.56;77.84;99350.92;1718038;80;21106;-82
2022/04/04 04:41:11;;;;;;;17.27;8.93;;;;;;;1.55;78.49;99350.08;1735571;80;21087;31
2022/04/04 04:43:39;;;;;;;16.30;7.72;;;;;;;1.58;78.65;99353.09;1731840;78;22245;-78
2022/04/04 04:46:06;;;;;;;20.17;7.55;;;;;;;1.62;79.48;99357.85;1649071;81;21043;-82
2022/04/04 04:48:33;;;;;;;16.93;7.97;;;;;;;1.66;79.02;99360.90;1695013;79;21133;-81
2022/04/04 04:51:07;;;;;;;16.97;8.50;;;;;;;1.68;79.70;99369.05;1763843;79;21199;31
2022/04/04 04:53:35;;;;;;;22.20;8.55;;;;;;;1.74;78.63;99361.45;1761646;78;21327;-82
2022/04/04 04:56:03;;;;;;;22.30;8.58;;;;;;;1.78;79.37;99357.23;1733499;79;21104;-80
2022/04/04 04:58:30;;;;;;;19.73;10.72;;;;;;;1.88;79.21;99351.81;1738260;76;21170;-79
2022/04/04 05:00:57;;;;;;;19.60;10.28;;;;;;;1.95;79.05;99362.58;1749112;78;21112;-81
2022/04/04 05:03:24;;;;;;;21.77;10.75;;;;;;;1.96;79.18;99360.05;1709074;79;21186;-81
2022/04/04 05:05:51;;;;;;;20.02;10.68;;;;;;;1.97;79.66;99365.62;1754778;78;21061;-81
2022/04/04 05:08:18;;;;;;;18.15;9.85;;;;;;;2.04;79.49;99361.44;1770243;79;21348;-81
2022/04/04 05:10:45;;;;;;;18.20;9.85;;;;;;;2.10;79.65;99364.51;1768695;81;21017;-83
2022/04/04 05:13:12;;;;;;;19.60;10.35;;;;;;;2.15;80.02;99371.42;1770715;81;20993;-82
2022/04/04 05:15:38;;;;;;;18.30;9.60;;;;;;;2.23;79.86;99374.09;1770059;79;21631;-83
2022/04/04 05:18:05;;;;;;;22.00;9.90;;;;;;;2.29;79.17;99366.48;1762071;81;21059;-81
2022/04/04 05:20:32;;;;;;;18.17;9.08;;;;;;;2.35;78.96;99368.27;1776692;80;21062;-82
2022/04/04 05:22:59;;;;;;;17.65;8.05;;;;;;;2.42;77.97;99365.34;1735358;82;21015;-82
2022/04/04 05:25:26;;;;;;;19.98;9.45;;;;;;;2.42;78.06;99365.34;1733073;83;21016;-82
2022/04/04 05:27:53;;;;;;;20.92;8.93;;;;;;;2.42;77.48;99372.60;1736330;83;21525;-83
2022/04/04 05:30:20;;;;;;;20.92;8.65;;;;;;;2.42;77.28;99365.34;1769038;80;20995;-81
2022/04/04 05:32:47;;;;;;;16.50;9.15;;;;;;;2.47;76.92;99366.27;1762412;80;21595;-82
2022/04/04 05:35:16;;;;;;;22.10;10.30;;;;;;;2.41;77.12;99363.59;1763888;81;20970;-84
2022/04/04 05:37:43;;;;;;;23.10;9.08;;;;;;;2.39;77.11;99367.45;1761783;81;21004;-81
2022/04/04 05:40:10;;;;;;;18.87;8.90;;;;;;;2.41;77.23;99368.73;1758359;80;21099;-82
2022/04/04 05:42:37;;;;;;;18.02;8.70;;;;;;;2.44;76.57;99367.06;1751145;81;21020;-80
2022/04/04 05:45:04;;;;;;;14.43;6.90;;;;;;;2.43;76.91;99366.64;1762344;80;21031;-82
2022/04/04 05:47:31;;;;;;;18.67;8.08;;;;;;;2.48;76.35;99370.11;1763752;80;21052;-82
2022/04/04 05:49:57;;;;;;;14.98;7.58;;;;;;;2.56;76.89;99363.78;1745436;81;21007;-82
2022/04/04 05:52:24;;;;;;;18.47;8.03;;;;;;;2.65;76.71;99365.62;1754732;80;21038;-83
2022/04/04 05:54:54;;;;;;;14.25;8.40;;;;;;;2.73;76.27;99366.13;1747002;81;21015;-82
2022/04/04 05:57:29;;;;;;;16.85;8.25;;;;;;;2.72;75.65;99367.39;1755229;81;21013;-79
2022/04/04 05:59:56;;;;;;;21.37;9.58;;;;;;;2.78;75.53;99370.02;1756677;81;21057;-81
2022/04/04 06:02:26;;;;;;;15.40;8.10;;;;;;;2.89;75.35;99365.02;1755112;81;21424;-79
2022/04/04 06:04:53;;;;;;;16.90;9.33;;;;;;;2.93;74.97;99359.91;1754154;81;21039;-78
2022/04/04 06:07:20;;;;;;;12.93;6.95;;;;;;;3.03;74.50;99365.15;1756521;80;20980;-85
2022/04/04 06:09:46;;;;;;;17.98;6.40;;;;;;;3.04;72.95;99357.86;1757449;80;21071;-79
2022/04/04 06:12:13;;;;;;;15.15;7.33;;;;;;;3.12;73.34;99363.93;1748080;81;22145;-80
2022/04/04 06:14:40;;;;;;;15.60;7.55;;;;;;;3.20;72.88;99363.58;1753447;80;21066;-80
2022/04/04 06:17:07;;;;;;;12.18;6.90;;;;;;;3.23;72.43;99366.19;1731457;81;20984;-80
2022/04/04 06:19:35;;;;;;;13.32;6.90;;;;;;;3.30;71.92;99359.38;1748794;81;21004;-80
2022/04/04 06:22:03;;;;;;;16.93;6.87;;;;;;;3.32;71.57;99364.99;1753653;81;21013;-78
2022/04/04 06:24:31;;;;;;;11.33;6.08;;;;;;;3.37;70.71;99358.16;1754138;81;21043;-77
2022/04/04 06:26:59;;;;;;;10.63;5.17;;;;;;;3.48;70.18;99364.69;1752287;81;22158;-77
2022/04/04 06:29:26;;;;;;;11.75;6.28;;;;;;;3.52;70.55;99360.41;1753964;81;21559;-77
2022/04/04 06:31:53;;;;;;;13.13;6.30;;;;;;;3.52;69.36;99365.15;1753212;81;20988;-78
2022/04/04 06:34:20;;;;;;;12.93;6.20;;;;;;;3.56;68.72;99364.32;1752229;80;21627;-77
2022/04/04 06:36:48;;;;;;;16.05;7.33;;;;;;;3.62;69.69;99356.20;1717975;83;20983;-78
2022/04/04 06:39:15;;;;;;;11.70;6.97;;;;;;;3.70;69.54;99360.97;1713677;83;21041;-80
2022/04/04 06:41:43;;;;;;;16.45;7.15;;;;;;;3.84;69.94;99355.91;1758959;81;20995;-82
2022/04/04 06:44:10;;;;;;;14.73;6.87;;;;;;;3.97;69.31;99364.15;1759935;80;21463;-79
2022/04/04 06:46:36;;;;;;;14.38;6.33;;;;;;;4.08;67.43;99361.22;1757186;81;20993;-78
2022/04/04 06:49:08;;;;;;;9.45;5.60;;;;;;;4.15;67.55;99365.96;1757075;80;21050;-80
2022/04/04 06:51:35;;;;;;;17.23;6.95;;;;;;;4.21;67.71;99366.42;1757933;81;21021;-80
2022/04/04 06:54:05;;;;;;;12.75;6.85;;;;;;;4.32;66.34;99370.77;1757208;80;21035;-81
2022/04/04 06:56:34;;;;;;;10.88;5.92;;;;;;;4.38;66.58;99368.22;1754386;81;21100;-79
2022/04/04 06:59:07;;;;;;;11.55;6.05;;;;;;;4.39;66.30;99374.22;1730488;80;21076;-78
2022/04/04 07:01:35;;;;;;;12.50;6.10;;;;;;;4.47;67.17;99366.53;1748664;81;21636;-80
2022/04/04 07:04:02;;;;;;;12.43;6.90;;;;;;;4.52;65.54;99371.29;1746459;81;21022;-81
2022/04/04 07:06:29;;;;;;;16.57;6.90;;;;;;;4.60;65.87;99371.32;1740161;81;21036;-77
2022/04/04 07:08:56;;;;;;;12.47;6.35;;;;;;;4.77;65.41;99370.92;1739542;82;22092;-77
2022/04/04 07:11:22;;;;;;;10.28;5.67;;;;;;;4.94;65.51;99373.55;1738799;82;22383;-77
2022/04/04 07:13:49;;;;;;;15.18;6.42;;;;;;;5.07;65.19;99371.84;1730750;82;21059;-79
2022/04/04 07:16:17;;;;;;;13.78;6.33;;;;;;;5.15;63.73;99371.42;1734931;82;20991;-79
2022/04/04 07:18:44;;;;;;;12.93;6.75;;;;;;;5.28;63.79;99366.72;1741643;81;21106;-81
2022/04/04 07:21:10;;;;;;;13.68;7.47;;;;;;;5.37;62.48;99383.90;1734325;81;21064;-81
2022/04/04 07:23:37;;;;;;;17.87;6.47;;;;;;;5.34;62.92;99374.89;1736321;82;21095;-81
2022/04/04 07:26:03;;;;;;;17.80;8.68;;;;;;;5.42;63.57;99379.62;1736656;82;20988;-80
2022/04/04 07:28:30;;;;;;;12.73;7.00;;;;;;;5.44;63.86;99372.74;1736267;82;20986;-82
2022/04/04 07:30:57;;;;;;;9.60;6.50;;;;;;;5.48;63.93;99381.34;1734785;82;21011;-75
2022/04/04 07:33:24;;;;;;;13.90;6.80;;;;;;;5.48;62.41;99373.61;1695753;83;21589;-77
2022/04/04 07:35:51;;;;;;;15.80;6.45;;;;;;;5.45;63.17;99372.30;1669445;84;21496;-79
2022/04/04 07:38:17;;;;;;;14.93;8.30;;;;;;;5.38;62.28;99374.88;1735285;82;21010;-77
2022/04/04 07:40:44;;;;;;;16.80;7.55;;;;;;;5.24;57.79;99384.33;1733455;82;21007;-78
2022/04/04 07:43:11;;;;;;;15.00;8.63;;;;;;;5.30;59.55;99375.31;1736037;82;21082;-78
2022/04/04 07:45:38;;;;;;;12.18;7.45;;;;;;;5.20;56.27;99382.61;1735229;82;21320;-78
2022/04/04 07:48:06;;;;;;;12.47;7.35;;;;;;;5.14;56.93;99380.03;1735697;82;21000;-81
2022/04/04 07:50:35;;;;;;;11.65;6.75;;;;;;;5.08;56.38;99380.88;1738189;82;21004;-80
2022/04/04 07:53:01;;;;;;;11.68;6.42;;;;;;;5.06;54.62;99382.59;1731993;82;21022;-81
2022/04/04 07:55:28;;;;;;;13.80;6.47;;;;;;;4.94;53.24;99382.57;1731404;82;21206;-81
2022/04/04 07:57:55;;;;;;;15.20;6.72;;;;;;;4.84;51.48;99390.70;1730251;82;21521;-82
2022/04/04 08:00:24;;;;;;;11.60;6.58;;;;;;;4.74;51.44;99389.81;1739089;82;21035;-81
2022/04/04 08:02:50;;;;;;;11.83;5.85;;;;;;;4.79;51.56;99391.10;1736399;82;21079;-81
2022/04/04 08:05:17;;;;;;;10.55;6.33;;;;;;;4.88;50.88;99379.55;1736725;81;21466;-79
2022/04/04 08:07:47;;;;;;;9.85;5.70;;;;;;;4.84;50.92;99383.41;1756039;81;21564;-79
2022/04/04 08:10:12;;;;;;;9.95;5.58;;;;;;;4.87;47.99;99382.97;1751607;81;21411;-78
2022/04/04 08:12:38;;;;;;;11.70;6.12;;;;;;;4.92;48.75;99381.70;1752829;81;21035;-79
2022/04/04 08:15:06;;;;;;;17.42;6.10;;;;;;;4.91;48.95;99385.13;1754452;81;20959;-78
2022/04/04 08:17:33;;;;;;;9.10;5.62;;;;;;;4.93;49.76;99380.44;1752548;81;21014;-79
2022/04/04 08:19:59;;;;;;;11.95;5.97;;;;;;;4.94;48.94;99379.56;1754350;81;21023;-79
2022/04/04 08:22:26;;;;;;;10.88;6.10;;;;;;;4.89;47.85;99377.82;1755070;81;21037;-80
2022/04/04 08:24:53;;;;;;;9.58;5.15;;;;;;;4.91;47.62;99376.11;1753123;81;21563;-79
2022/04/04 08:27:19;;;;;;;11.50;5.80;;;;;;;5.01;48.09;99370.11;1747284;81;21026;-80
2022/04/04 08:29:46;;;;;;;11.70;5.37;;;;;;;5.13;48.84;99375.31;1750080;81;21067;-79
2022/04/04 08:32:13;;;;;;;10.60;5.90;;;;;;;5.30;47.86;99370.59;1753979;81;21015;-80
2022/04/04 08:34:40;;;;;;;11.08;5.83;;;;;;;5.45;48.43;99365.86;1723566;81;21039;-80
2022/04/04 08:37:07;;;;;;;10.13;5.58;;;;;;;5.51;47.61;99366.73;1755692;81;21054;-79
2022/04/04 08:39:34;;;;;;;10.68;5.92;;;;;;;5.54;46.81;99364.14;1754758;81;21003;-78
2022/04/04 08:42:02;;;;;;;10.00;5.42;;;;;;;5.60;46.66;99364.57;1754195;81;21006;-80
2022/04/04 08:44:29;;;;;;;10.50;5.45;;;;;;;5.46;46.44;99373.59;1756509;81;21547;-79
2022/04/04 08:46:56;;;;;;;11.18;5.42;;;;;;;5.44;46.65;99366.73;1755251;81;21093;-79
2022/04/04 08:49:23;;;;;;;9.68;6.15;;;;;;;5.37;45.67;99364.16;1750510;81;21463;-82
2022/04/04 08:51:49;;;;;;;14.78;6.17;;;;;;;5.36;46.06;99358.99;1754406;81;21047;-80
2022/04/04 08:54:16;;;;;;;9.85;5.42;;;;;;;5.33;45.62;99357.28;1757470;81;21009;-80
2022/04/04 08:56:43;;;;;;;9.85;5.85;;;;;;;5.42;45.85;99359.43;1755112;81;21004;-78
2022/04/04 08:59:10;;;;;;;9.40;5.22;;;;;;;5.52;45.76;99355.55;1753223;81;21067;-80
2022/04/04 09:01:37;;;;;;;13.48;6.58;;;;;;;5.61;46.04;99363.73;1753076;81;21570;-78
2022/04/04 09:04:09;;;;;;;10.43;5.65;;;;;;;5.66;45.50;99341.34;1745400;81;21316;-78
2022/04/04 09:06:53;;;;;;;11.63;5.45;;;;;;;5.81;45.25;99349.92;1741168;81;21067;-81
2022/04/04 09:09:40;;;;;;;12.65;5.75;;;;;;;5.78;45.48;99352.94;1732737;81;21468;-78
2022/04/04 09:12:11;;;;;;;10.08;5.30;;;;;;;5.78;45.90;99331.00;1724130;81;21042;-78
2022/04/04 09:14:53;;;;;;;11.18;5.45;;;;;;;6.02;45.91;99334.42;1727441;81;21123;-78
2022/04/04 09:17:24;;;;;;;8.65;5.85;;;;;;;6.11;44.87;99346.02;1731153;81;21052;-80
2022/04/04 09:19:51;;;;;;;11.57;5.10;;;;;;;6.20;44.41;99341.25;1732168;81;21031;-81
2022/04/04 09:22:20;;;;;;;9.35;5.30;;;;;;;6.27;43.85;99331.34;1730725;81;21091;-80
2022/04/04 09:24:52;;;;;;;8.98;5.62;;;;;;;6.42;44.38;99331.69;1724302;81;21027;-79
2022/04/04 09:27:25;;;;;;;10.90;5.35;;;;;;;6.43;43.81;99336.45;1731692;81;21550;-80
2022/04/04 09:29:57;;;;;;;10.60;5.90;;;;;;;6.28;43.76;99339.94;1731889;81;21502;-78
2022/04/04 09:32:41;;;;;;;16.15;6.67;;;;;;;6.25;44.44;99322.74;1732829;82;21078;-78
2022/04/04 09:35:15;;;;;;;;;;;;;;;6.30;44.80;99324.85;1731002;81;21043;-80
2022/04/04 09:37:43;;;;;;;9.90;6.22;;;;;;;6.38;44.20;99323.53;1698677;83;20194;-81
2022/04/04 09:40:21;;;;;;;9.20;5.65;;;;;;;6.23;43.25;99320.60;1686394;84;21033;-80
2022/04/04 09:42:56;;;;;;;12.03;6.10;;;;;;;6.15;44.97;99319.77;1675254;84;21032;-81
2022/04/04 09:45:32;;;;;;;14.60;6.55;;;;;;;6.20;45.33;99318.45;1731510;82;21550;-80
2022/04/04 09:48:04;;;;;;;;;;;;;;;6.21;44.94;99313.70;1739339;81;21054;-80
2022/04/04 09:50:41;;;;;;;11.57;6.42;;;;;;;6.21;45.70;99308.54;1733483;81;20164;-79
2022/04/04 09:53:12;;;;;;;9.85;6.15;;;;;;;6.17;45.50;99305.98;1738796;81;21472;-80
2022/04/04 09:55:46;;;;;;;8.63;5.50;;;;;;;6.34;45.03;99308.92;1731709;81;21035;-78
2022/04/04 09:58:19;;;;;;;13.32;6.58;;;;;;;6.44;44.13;99296.83;1735088;81;21079;-79
2022/04/04 10:00:50;;;;;;;9.65;5.50;;;;;;;6.57;44.89;99307.09;1729168;81;21034;-78
2022/04/04 10:03:20;;;;;;;13.55;6.50;;;;;;;6.82;43.94;99299.62;1732243;81;20964;-79
2022/04/04 10:06:07;;;;;;;15.48;6.00;;;;;;;6.67;41.70;99293.69;1735224;81;21024;-77
2022/04/04 10:08:38;;;;;;;12.88;6.15;;;;;;;6.57;42.96;99308.37;1717996;81;21603;-80
2022/04/04 10:11:10;;;;;;;11.30;6.10;;;;;;;6.81;42.69;99304.38;1758238;81;21083;-80
2022/04/04 10:13:37;;;;;;;10.20;5.80;;;;;;;6.89;42.68;99297.42;1722372;83;21052;-79
2022/04/04 10:16:05;;;;;;;11.63;5.08;;;;;;;6.80;41.46;99289.28;1759768;81;21474;-80
2022/04/04 10:18:35;;;;;;;10.43;6.03;;;;;;;6.86;40.96;99296.14;1741161;81;21035;-79
2022/04/04 10:21:02;;;;;;;12.37;5.85;;;;;;;6.81;41.52;99300.06;1722271;82;21808;-78
2022/04/04 10:23:30;;;;;;;8.65;5.53;;;;;;;6.90;41.19;99303.89;1723536;83;21103;-78
2022/04/04 10:25:58;;;;;;;8.85;5.03;;;;;;;6.92;41.65;99303.44;1727713;82;21551;-79
2022/04/04 10:28:30;;;;;;;9.20;5.33;;;;;;;7.03;41.91;99290.87;1729420;83;21082;-78
2022/04/04 10:31:13;;;;;;;6.50;4.40;;;;;;;7.14;41.99;99289.03;1697086;83;20981;-79
2022/04/04 10:33:40;;;;;;;10.30;5.47;;;;;;;7.25;41.75;99288.52;1709143;83;21063;-80
2022/04/04 10:36:11;;;;;;;13.93;5.15;;;;;;;7.17;40.91;99289.88;1729335;82;21043;-78
2022/04/04 10:38:50;;;;;;;8.88;4.78;;;;;;;7.22;40.75;99290.27;1761104;81;20979;-78
2022/04/04 10:41:20;;;;;;;8.38;5.22;;;;;;;7.46;40.71;99292.66;1759363;81;20992;-79
2022/04/04 10:43:50;;;;;;;9.53;5.10;;;;;;;7.35;39.44;99286.27;1748124;81;21019;-79
2022/04/04 10:46:20;;;;;;;8.03;4.72;;;;;;;7.42;40.11;99290.09;1760398;81;21015;-79
2022/04/04 10:48:54;;;;;;;11.28;5.40;;;;;;;7.46;39.39;99284.90;1756886;81;21062;-79
2022/04/04 10:51:36;;;;;;;8.83;4.72;;;;;;;7.48;39.28;99284.45;1759079;81;21200;-78
2022/04/04 10:54:09;;;;;;;11.25;4.90;;;;;;;7.58;39.55;99278.75;1698689;84;21110;-78
2022/04/04 10:56:45;;;;;;;11.40;4.53;;;;;;;7.54;38.90;99277.03;1689836;83;21699;-78
2022/04/04 10:59:24;;;;;;;11.15;4.92;;;;;;;7.62;39.04;99274.38;1753156;81;21026;-79
2022/04/04 11:02:02;;;;;;;8.70;4.35;;;;;;;7.56;39.15;99270.15;1750520;81;20971;-79
2022/04/04 11:04:37;;;;;;;10.75;5.17;;;;;;;7.61;39.38;99282.58;1695399;83;21019;-78
2022/04/04 11:10:06;;;;;;;8.68;4.85;;;;;;;7.93;39.33;99261.97;1711969;83;21025;-80
2022/04/04 11:12:56;;;;;;;9.65;4.47;;;;;;;8.17;39.33;99259.06;1746192;81;20972;-80
2022/04/04 11:15:45;;;;;;;7.90;4.72;;;;;;;8.29;39.42;99260.64;1754273;81;21067;-79
2022/04/04 11:18:13;;;;;;;8.80;4.62;;;;;;;8.38;39.07;99264.86;1756548;81;20999;-79
2022/04/04 11:20:50;;;;;;;14.35;4.72;;;;;;;8.54;38.18;99250.84;1758423;81;21014;-78
2022/04/04 11:23:20;;;;;;;7.05;3.65;;;;;;;8.72;38.88;99254.05;1752040;81;21102;-79
2022/04/04 11:25:52;;;;;;;9.25;4.37;;;;;;;8.69;37.33;99249.75;1760716;81;21054;-79
2022/04/04 11:28:30;;;;;;;8.68;4.10;;;;;;;9.16;36.92;99262.41;1760337;81;21070;-79
2022/04/04 11:30:54;;;;;;;8.70;4.62;;;;;;;9.42;36.67;99226.53;1759036;81;21474;-79
2022/04/04 11:33:26;;;;;;;7.40;4.03;;;;;;;9.69;35.64;99252.42;1760642;81;21106;-79
2022/04/04 11:35:53;;;;;;;6.17;3.87;;;;;;;9.63;34.84;99261.59;1762035;81;21043;-79
2022/04/04 11:38:20;;;;;;;10.10;3.42;;;;;;;9.83;35.50;99249.53;1760810;81;20968;-79
2022/04/04 11:40:54;;;;;;;9.48;3.95;;;;;;;9.96;35.42;99258.80;1761535;81;21054;-79
2022/04/04 11:43:24;;;;;;;7.28;3.83;;;;;;;10.13;34.91;99234.64;1758357;81;21016;-78
2022/04/04 11:45:56;;;;;;;6.45;3.30;;;;;;;10.46;35.35;99237.86;1753211;81;21582;-79
2022/04/04 11:48:24;;;;;;;7.35;3.42;;;;;;;10.78;33.19;99241.02;1755762;81;21042;-78
2022/04/04 11:50:56;;;;;;;6.42;3.40;;;;;;;10.69;33.07;99238.20;1761806;81;21135;-78
2022/04/04 11:53:25;;;;;;;8.30;3.60;;;;;;;10.53;32.56;99236.39;1747451;81;21094;-78
2022/04/04 11:55:50;;;;;;;6.92;3.70;;;;;;;10.48;33.45;99229.58;1741662;81;21067;-79
2022/04/04 11:58:20;;;;;;;7.35;3.58;;;;;;;10.39;33.58;99248.00;1761480;81;21602;-79